Time;durP1;ratioP1;P1;durP2;ratioP2;P2;SDS_P1;SDS_P2;PMS_P1;PMS_P2;Temp;Humidity;BMP_temperature;BMP_pressure;BME280_temperature;BME280_humidity;BME280_pressure;Samples;Min_cycle;Max_cycle;Signal;HPM_P1;HPM_P2
2022/02/16 00:00:36;;;;;;;28.90;16.95;;;;;;;2.91;69.65;101471.34;1771049;79;21248;-62
2022/02/16 00:03:41;;;;;;;28.92;15.28;;;;;;;2.91;69.75;101468.63;1771395;80;21252;-62
2022/02/16 00:06:46;;;;;;;26.75;15.93;;;;;;;2.95;69.84;101465.62;1770580;80;21268;-62
2022/02/16 00:09:51;;;;;;;30.68;17.00;;;;;;;2.98;69.80;101461.86;1771039;79;21351;-61
2022/02/16 00:12:58;;;;;;;30.02;16.42;;;;;;;3.02;69.78;101459.33;1763652;81;21200;-63
2022/02/16 00:16:08;;;;;;;36.08;17.15;;;;;;;3.03;69.66;101452.93;1771195;79;21196;-62
2022/02/16 00:19:12;;;;;;;27.22;16.35;;;;;;;3.06;69.65;101454.08;1771236;79;21722;-62
2022/02/16 00:22:17;;;;;;;27.37;15.40;;;;;;;3.08;69.67;101439.97;1772201;80;21508;-63
2022/02/16 00:25:24;;;;;;;26.20;15.78;;;;;;;3.12;69.58;101439.30;1770875;79;21204;-62
2022/02/16 00:28:31;;;;;;;27.20;16.05;;;;;;;3.14;69.55;101442.27;1770965;80;21213;-62
2022/02/16 00:31:36;;;;;;;29.25;15.10;;;;;;;3.14;69.47;101430.59;1771753;80;21339;-62
2022/02/16 00:34:44;;;;;;;25.48;14.85;;;;;;;3.13;69.40;101424.31;1770928;79;21193;-63
2022/02/16 00:37:51;;;;;;;33.00;17.20;;;;;;;3.09;69.42;101429.56;1770978;81;21248;-62
2022/02/16 00:40:56;;;;;;;32.20;16.15;;;;;;;3.08;69.45;101421.92;1769080;79;21375;-62
2022/02/16 00:44:02;;;;;;;25.82;15.60;;;;;;;3.05;69.50;101422.60;1771225;79;21237;-61
2022/02/16 00:47:08;;;;;;;26.35;15.08;;;;;;;3.01;69.48;101431.91;1771462;80;21256;-62
2022/02/16 00:50:14;;;;;;;23.87;14.10;;;;;;;2.91;69.38;101421.31;1771106;79;21347;-61
2022/02/16 00:53:19;;;;;;;27.17;14.13;;;;;;;2.81;69.50;101422.88;1745416;80;21340;-61
2022/02/16 00:56:25;;;;;;;29.63;14.63;;;;;;;2.70;69.61;101419.54;1770747;80;21328;-62
2022/02/16 00:59:31;;;;;;;26.05;13.35;;;;;;;2.62;69.95;101421.88;1771193;79;21391;-61
2022/02/16 01:02:36;;;;;;;29.05;14.13;;;;;;;2.54;70.23;101412.05;1770701;80;21465;-62
2022/02/16 01:05:45;;;;;;;25.68;14.40;;;;;;;2.47;70.41;101399.05;1770620;80;21240;-61
2022/02/16 01:08:52;;;;;;;26.57;14.07;;;;;;;2.38;70.71;101401.00;1772062;80;21342;-61
2022/02/16 01:11:57;;;;;;;24.35;14.25;;;;;;;2.30;70.92;101399.27;1771460;80;21841;-61
2022/02/16 01:15:03;;;;;;;23.38;14.23;;;;;;;2.22;71.20;101393.50;1770633;79;21220;-61
2022/02/16 01:18:09;;;;;;;26.23;13.78;;;;;;;2.10;71.45;101388.86;1770874;80;21249;-62
2022/02/16 01:21:18;;;;;;;22.50;13.80;;;;;;;2.03;71.76;101394.28;1771276;79;21414;-61
2022/02/16 01:24:25;;;;;;;21.52;13.30;;;;;;;1.97;71.98;101391.95;1770551;79;21224;-62
2022/02/16 01:27:31;;;;;;;28.62;17.02;;;;;;;1.93;72.13;101394.47;1771118;80;21197;-61
2022/02/16 01:30:38;;;;;;;26.97;14.75;;;;;;;1.81;72.33;101383.95;1770941;79;21488;-62
2022/02/16 01:33:47;;;;;;;28.75;16.15;;;;;;;1.73;72.58;101388.95;1771143;80;21339;-62
2022/02/16 01:36:55;;;;;;;28.60;15.83;;;;;;;1.63;72.80;101382.41;1771470;80;21343;-63
2022/02/16 01:40:02;;;;;;;26.97;14.83;;;;;;;1.53;73.13;101391.56;1770804;79;21224;-61
2022/02/16 01:43:10;;;;;;;30.48;15.53;;;;;;;1.45;73.52;101390.27;1737546;82;21216;-62
2022/02/16 01:46:16;;;;;;;25.60;15.65;;;;;;;1.36;73.87;101388.16;1737084;81;21270;-62
2022/02/16 01:49:25;;;;;;;27.42;15.55;;;;;;;1.29;74.30;101388.12;1737040;81;21736;-62
2022/02/16 01:52:31;;;;;;;27.48;16.00;;;;;;;1.22;74.60;101392.16;1737103;82;21199;-61
2022/02/16 01:55:36;;;;;;;27.87;15.05;;;;;;;1.19;75.03;101381.06;1737214;81;21238;-61
2022/02/16 01:58:45;;;;;;;32.85;14.23;;;;;;;1.20;75.12;101390.91;1737121;82;21215;-61
2022/02/16 02:01:51;;;;;;;29.77;16.40;;;;;;;1.18;75.25;101386.08;1711405;82;21866;-61
2022/02/16 02:04:59;;;;;;;25.80;14.93;;;;;;;1.11;75.37;101392.78;1716647;82;21405;-61
2022/02/16 02:08:05;;;;;;;28.00;16.15;;;;;;;1.07;75.53;101389.02;1737038;82;21191;-62
2022/02/16 02:11:11;;;;;;;24.85;14.60;;;;;;;1.03;75.65;101395.06;1736953;81;21184;-61
2022/02/16 02:14:18;;;;;;;27.95;15.93;;;;;;;1.02;75.85;101391.99;1736612;81;21176;-61
2022/02/16 02:17:32;;;;;;;30.57;15.50;;;;;;;0.99;75.91;101384.09;1736997;82;21152;-61
2022/02/16 02:20:40;;;;;;;28.87;15.60;;;;;;;0.93;76.08;101385.81;1736931;81;21219;-61
2022/02/16 02:23:46;;;;;;;24.85;15.05;;;;;;;0.89;76.28;101384.70;1737124;82;21212;-62
2022/02/16 02:26:51;;;;;;;26.97;15.78;;;;;;;0.83;76.48;101388.64;1737208;82;21180;-62
2022/02/16 02:29:57;;;;;;;28.80;16.67;;;;;;;0.80;76.67;101390.64;1737008;81;21223;-61
2022/02/16 02:33:04;;;;;;;27.10;15.83;;;;;;;0.75;76.84;101383.30;1737241;82;21787;-62
2022/02/16 02:36:13;;;;;;;35.40;18.35;;;;;;;0.73;77.07;101376.66;1737065;81;21254;-62
2022/02/16 02:39:18;;;;;;;32.73;18.05;;;;;;;0.72;77.15;101371.36;1737054;81;21236;-63
2022/02/16 02:42:23;;;;;;;31.50;18.32;;;;;;;0.72;77.30;101372.23;1748241;78;21200;-61
2022/02/16 02:45:32;;;;;;;33.90;18.30;;;;;;;0.70;77.38;101364.72;1771108;79;21343;-61
2022/02/16 02:48:37;;;;;;;31.00;17.00;;;;;;;0.72;77.50;101367.31;1770916;81;21496;-61
2022/02/16 02:51:44;;;;;;;29.32;17.02;;;;;;;0.75;77.64;101371.17;1770791;81;21844;-61
2022/02/16 02:54:53;;;;;;;26.45;17.10;;;;;;;0.75;77.64;101377.91;1771084;79;21181;-62
2022/02/16 02:57:58;;;;;;;28.83;17.70;;;;;;;0.75;77.67;101376.56;1771145;80;21339;-62
2022/02/16 03:01:05;;;;;;;39.58;22.80;;;;;;;0.72;77.74;101374.93;1771019;79;21244;-62
2022/02/16 03:04:15;;;;;;;38.30;22.45;;;;;;;0.67;77.82;101372.98;1771467;79;21284;-61
2022/02/16 03:07:20;;;;;;;37.65;21.12;;;;;;;0.64;77.90;101370.94;1771217;80;21272;-62
2022/02/16 03:10:25;;;;;;;37.15;19.60;;;;;;;0.60;78.04;101371.62;1770890;79;21386;-61
2022/02/16 03:13:31;;;;;;;32.20;19.92;;;;;;;0.58;78.19;101373.99;1770952;81;21272;-62
2022/02/16 03:16:44;;;;;;;40.15;19.77;;;;;;;0.58;78.34;101367.25;1771144;80;21370;-61
2022/02/16 03:19:50;;;;;;;32.40;19.45;;;;;;;0.62;78.52;101372.87;1771123;79;21193;-62
2022/02/16 03:22:57;;;;;;;31.62;18.42;;;;;;;0.68;78.64;101365.27;1770789;81;21221;-61
2022/02/16 03:26:05;;;;;;;33.15;18.30;;;;;;;0.82;78.85;101363.14;1771116;79;21351;-62
2022/02/16 03:29:11;;;;;;;29.75;18.12;;;;;;;0.93;78.77;101363.38;1770949;79;21240;-62
2022/02/16 03:32:19;;;;;;;32.58;18.27;;;;;;;1.08;78.92;101354.34;1770754;80;21197;-62
2022/02/16 03:35:25;;;;;;;35.30;17.70;;;;;;;1.21;78.70;101361.63;1770918;79;21326;-62
2022/02/16 03:38:31;;;;;;;29.90;18.57;;;;;;;1.34;78.40;101359.05;1770791;80;21708;-62
2022/02/16 03:41:39;;;;;;;34.40;19.65;;;;;;;1.44;78.19;101361.58;1770779;80;21535;-62
2022/02/16 03:44:46;;;;;;;31.10;17.95;;;;;;;1.54;78.03;101370.34;1770076;79;21284;-62
2022/02/16 03:47:56;;;;;;;32.48;18.98;;;;;;;1.62;77.72;101369.02;1770962;81;21205;-59
2022/02/16 03:51:04;;;;;;;33.73;18.48;;;;;;;1.68;77.51;101357.36;1770894;79;21280;-59
2022/02/16 03:54:11;;;;;;;31.68;17.48;;;;;;;1.78;77.41;101357.15;1770939;79;21425;-59
2022/02/16 03:57:18;;;;;;;31.85;18.87;;;;;;;1.85;77.09;101357.64;1770729;81;21197;-59
2022/02/16 04:00:26;;;;;;;29.02;16.93;;;;;;;1.78;76.53;101350.88;1770700;79;21272;-59
2022/02/16 04:03:32;;;;;;;31.02;17.62;;;;;;;1.72;76.63;101348.56;1770730;81;21228;-59
2022/02/16 04:06:39;;;;;;;29.15;17.45;;;;;;;1.75;76.74;101342.97;1770915;81;21829;-59
2022/02/16 04:09:45;;;;;;;32.48;19.27;;;;;;;1.77;76.69;101339.23;1771047;79;21217;-59
2022/02/16 04:12:52;;;;;;;29.18;17.75;;;;;;;1.79;76.64;101345.41;1770974;80;21161;-59
2022/02/16 04:15:59;;;;;;;31.62;18.92;;;;;;;1.84;76.71;101341.06;1770772;79;21255;-59
2022/02/16 04:19:04;;;;;;;35.15;18.57;;;;;;;1.90;76.59;101328.52;1770703;79;21346;-59
2022/02/16 04:22:14;;;;;;;29.70;18.25;;;;;;;1.93;76.53;101339.13;1770775;81;21198;-59
2022/02/16 04:25:17;;;;;;;27.65;16.77;;;;;;;1.99;76.35;101337.38;1771015;79;21471;-59
2022/02/16 04:28:25;;;;;;;33.92;18.40;;;;;;;2.01;76.15;101331.41;1770991;81;21662;-59
2022/02/16 04:31:30;;;;;;;34.38;18.85;;;;;;;1.97;75.79;101327.14;1771920;80;21374;-59
2022/02/16 04:34:38;;;;;;;37.53;21.37;;;;;;;1.92;75.73;101335.55;1770967;79;21998;-60
2022/02/16 04:37:44;;;;;;;41.13;23.18;;;;;;;1.83;75.62;101328.52;1771096;80;21261;-60
2022/02/16 04:40:51;;;;;;;42.27;21.52;;;;;;;1.79;75.91;101333.73;1770954;79;21691;-59
2022/02/16 04:43:59;;;;;;;42.83;22.27;;;;;;;1.86;76.06;101338.64;1770740;80;21180;-60
2022/02/16 04:47:06;;;;;;;35.78;21.10;;;;;;;1.84;75.91;101338.37;1720227;82;21200;-60
2022/02/16 04:50:15;;;;;;;32.48;20.60;;;;;;;1.76;75.93;101344.22;1719500;82;21229;-59
2022/02/16 04:53:22;;;;;;;38.40;22.90;;;;;;;1.73;76.12;101339.02;1719455;83;21233;-61
2022/02/16 04:56:28;;;;;;;46.08;25.48;;;;;;;1.77;76.29;101335.66;1719463;83;21205;-61
2022/02/16 04:59:34;;;;;;;52.10;26.68;;;;;;;1.83;76.33;101344.23;1703865;82;21257;-59
2022/02/16 05:02:40;;;;;;;53.05;27.90;;;;;;;1.87;76.33;101349.81;1718048;82;21241;-59
2022/02/16 05:05:46;;;;;;;51.50;28.35;;;;;;;1.93;76.35;101358.02;1698906;82;21281;-61
2022/02/16 05:08:53;;;;;;;48.63;26.65;;;;;;;1.96;76.23;101361.88;1690255;85;21249;-60
2022/02/16 05:11:58;;;;;;;44.50;24.98;;;;;;;2.04;76.33;101371.23;1690297;85;21221;-61
2022/02/16 05:15:04;;;;;;;38.65;22.37;;;;;;;2.08;76.09;101366.52;1690235;83;21316;-60
2022/02/16 05:18:09;;;;;;;39.60;24.02;;;;;;;2.13;76.14;101367.05;1690329;85;21359;-59
2022/02/16 05:21:17;;;;;;;40.12;23.70;;;;;;;2.21;76.04;101371.48;1708295;83;21286;-60
2022/02/16 05:24:23;;;;;;;43.17;23.73;;;;;;;2.27;75.90;101376.01;1701635;83;21245;-60
2022/02/16 05:27:30;;;;;;;36.95;22.90;;;;;;;2.28;75.56;101378.23;1704133;84;21223;-61
2022/02/16 05:30:37;;;;;;;41.45;23.27;;;;;;;2.24;75.40;101374.86;1725374;81;21229;-61
2022/02/16 05:33:44;;;;;;;39.80;22.07;;;;;;;2.18;75.43;101374.38;1709307;83;21382;-61
2022/02/16 05:36:52;;;;;;;33.02;20.40;;;;;;;2.17;75.61;101369.96;1709898;83;21705;-61
2022/02/16 05:39:57;;;;;;;33.75;20.62;;;;;;;2.22;75.84;101366.48;1697341;83;21292;-60
2022/02/16 05:43:06;;;;;;;33.15;19.65;;;;;;;2.27;75.94;101362.97;1694602;83;21288;-61
2022/02/16 05:46:12;;;;;;;31.62;19.10;;;;;;;2.31;75.85;101369.94;1689927;82;21257;-61
2022/02/16 05:49:19;;;;;;;30.15;19.32;;;;;;;2.29;75.78;101371.86;1691327;83;21209;-61
2022/02/16 05:52:24;;;;;;;35.17;21.48;;;;;;;2.34;75.99;101381.41;1703095;82;21231;-61
2022/02/16 05:55:30;;;;;;;34.58;21.15;;;;;;;2.41;75.81;101385.94;1764474;80;21244;-60
2022/02/16 05:58:36;;;;;;;37.85;22.50;;;;;;;2.38;75.54;101388.84;1766060;81;21300;-60
2022/02/16 06:01:42;;;;;;;33.98;20.15;;;;;;;2.33;75.52;101387.76;1768463;80;21287;-60
2022/02/16 06:04:48;;;;;;;36.98;20.65;;;;;;;2.31;75.43;101390.19;1762073;80;21674;-61
2022/02/16 06:07:56;;;;;;;33.35;21.17;;;;;;;2.26;75.51;101388.27;1750247;80;21268;-60
2022/02/16 06:11:04;;;;;;;33.05;21.15;;;;;;;2.26;75.54;101387.80;1767605;80;21763;-60
2022/02/16 06:14:11;;;;;;;33.05;22.25;;;;;;;2.25;75.64;101379.28;1756840;80;21197;-60
2022/02/16 06:17:22;;;;;;;36.58;20.72;;;;;;;2.25;75.60;101375.23;1765669;80;21277;-60
2022/02/16 06:20:29;;;;;;;30.50;19.02;;;;;;;2.26;75.61;101378.34;1756857;80;21197;-60
2022/02/16 06:23:39;;;;;;;46.70;24.90;;;;;;;2.30;75.64;101369.05;1767903;80;22039;-60
2022/02/16 06:26:45;;;;;;;44.15;24.80;;;;;;;2.22;75.42;101362.44;1768657;81;21204;-60
2022/02/16 06:29:50;;;;;;;40.58;23.05;;;;;;;2.27;75.87;101365.67;1767353;79;21173;-60
2022/02/16 06:33:03;;;;;;;36.17;22.55;;;;;;;2.33;75.95;101359.91;1735331;81;21188;-61
2022/02/16 06:36:09;;;;;;;41.50;24.92;;;;;;;2.44;76.06;101356.86;1746565;81;21267;-60
2022/02/16 06:39:17;;;;;;;45.98;27.13;;;;;;;2.57;76.09;101356.95;1745703;81;21267;-62
2022/02/16 06:42:23;;;;;;;37.45;22.62;;;;;;;2.64;75.62;101382.11;1739891;82;21221;-62
2022/02/16 06:45:28;;;;;;;41.42;25.68;;;;;;;2.60;75.11;101367.55;1739849;81;21325;-60
2022/02/16 06:48:35;;;;;;;46.63;29.35;;;;;;;2.52;75.15;101367.19;1739709;80;21272;-62
2022/02/16 06:51:42;;;;;;;46.30;26.35;;;;;;;2.51;75.27;101373.54;1745623;81;21446;-61
2022/02/16 06:54:48;;;;;;;41.80;26.70;;;;;;;2.55;75.34;101361.58;1772032;79;21264;-62
2022/02/16 06:57:55;;;;;;;48.13;28.00;;;;;;;2.55;75.37;101367.83;1772222;80;21350;-62
2022/02/16 07:01:05;;;;;;;45.70;28.30;;;;;;;2.59;75.41;101361.74;1741962;81;21938;-61
2022/02/16 07:04:09;;;;;;;40.90;27.05;;;;;;;2.67;75.55;101359.40;1755024;81;21374;-62
2022/02/16 07:07:15;;;;;;;46.80;28.70;;;;;;;2.85;75.74;101359.03;1742851;81;21244;-61
2022/02/16 07:10:20;;;;;;;40.88;26.20;;;;;;;2.97;75.38;101354.64;1770878;80;21193;-62
2022/02/16 07:13:27;;;;;;;44.18;27.40;;;;;;;2.98;75.02;101357.75;1799115;80;21229;-61
2022/02/16 07:16:34;;;;;;;43.48;25.45;;;;;;;2.98;74.87;101342.88;1792049;80;21378;-62
2022/02/16 07:19:40;;;;;;;40.38;25.82;;;;;;;3.04;74.96;101339.23;1772733;79;21559;-62
2022/02/16 07:22:55;;;;;;;43.70;25.45;;;;;;;3.05;74.59;101334.70;1772462;80;21205;-61
2022/02/16 07:26:03;;;;;;;47.10;26.35;;;;;;;2.98;74.40;101349.63;1772846;80;21201;-62
2022/02/16 07:29:10;;;;;;;46.85;27.60;;;;;;;2.90;74.59;101343.37;1764272;81;21332;-62
2022/02/16 07:32:19;;;;;;;42.95;27.17;;;;;;;2.83;74.62;101342.54;1760982;80;21729;-63
2022/02/16 07:35:25;;;;;;;43.73;28.80;;;;;;;2.74;74.92;101335.91;1740406;82;21347;-63
2022/02/16 07:38:32;;;;;;;49.93;29.52;;;;;;;2.75;75.05;101336.78;1769039;81;21343;-62
2022/02/16 07:41:39;;;;;;;52.38;31.95;;;;;;;2.68;75.18;101329.56;1772055;80;21410;-63
2022/02/16 07:44:53;;;;;;;54.75;31.65;;;;;;;2.74;75.55;101334.55;1766804;79;21342;-62
2022/02/16 07:48:03;;;;;;;53.75;32.88;;;;;;;2.77;75.61;101326.27;1767720;79;21801;-61
2022/02/16 07:51:11;;;;;;;60.98;35.13;;;;;;;2.82;75.57;101329.49;1744163;81;21256;-62
2022/02/16 07:54:31;;;;;;;64.12;34.63;;;;;;;2.83;75.45;101323.14;1759921;79;21216;-62
2022/02/16 07:57:44;;;;;;;62.50;34.25;;;;;;;2.94;75.60;101321.92;1731145;82;21170;-62
2022/02/16 08:00:50;;;;;;;70.40;36.75;;;;;;;2.98;75.57;101316.67;1709345;82;22086;-62
2022/02/16 08:04:15;;;;;;;73.85;38.40;;;;;;;2.97;75.43;101320.36;1768661;81;22018;-62
2022/02/16 08:07:06;;;;;;;79.35;39.95;;;;;;;2.90;75.56;101314.97;1733996;82;21734;-62
2022/02/16 08:10:15;;;;;;;91.72;42.58;;;;;;;2.86;75.71;101320.23;1700098;82;21187;-62
2022/02/16 08:13:25;;;;;;;88.45;43.23;;;;;;;2.83;75.96;101314.15;1707705;83;21697;-63
2022/02/16 08:16:34;;;;;;;95.07;44.67;;;;;;;2.82;76.11;101309.73;1700712;83;21209;-63
2022/02/16 08:19:43;;;;;;;95.72;44.50;;;;;;;2.88;76.31;101313.36;1690273;83;21539;-61
2022/02/16 08:22:52;;;;;;;104.92;44.90;;;;;;;2.98;76.49;101306.36;1671068;83;21205;-62
2022/02/16 08:25:58;;;;;;;98.65;42.95;;;;;;;3.04;76.40;101312.70;1705932;83;21217;-62
2022/02/16 08:29:06;;;;;;;98.50;45.83;;;;;;;3.04;76.19;101307.28;1718894;82;21743;-61
2022/02/16 08:32:14;;;;;;;93.37;42.65;;;;;;;2.89;76.12;101313.73;1716897;83;21634;-62
2022/02/16 08:35:26;;;;;;;96.82;42.30;;;;;;;2.82;76.42;101309.73;1735915;81;21220;-61
2022/02/16 08:38:32;;;;;;;102.60;42.30;;;;;;;2.77;76.68;101313.22;1735593;82;21177;-61
2022/02/16 08:41:41;;;;;;;95.22;42.45;;;;;;;2.73;76.87;101313.03;1762921;81;21213;-63
2022/02/16 08:44:47;;;;;;;99.92;42.50;;;;;;;2.64;77.16;101313.19;1759731;79;21663;-61
2022/02/16 08:47:54;;;;;;;100.33;41.80;;;;;;;2.60;77.45;101313.50;1759182;81;21738;-62
2022/02/16 08:51:00;;;;;;;91.72;40.78;;;;;;;2.57;77.75;101312.36;1729299;79;21295;-63
2022/02/16 08:54:08;;;;;;;80.35;34.92;;;;;;;2.56;78.02;101308.78;1741566;81;21204;-62
2022/02/16 08:57:19;;;;;;;87.17;37.35;;;;;;;2.61;78.32;101309.34;1768887;81;21349;-62
2022/02/16 09:00:25;;;;;;;84.45;38.38;;;;;;;2.55;78.28;101301.62;1769859;81;21389;-62
2022/02/16 09:03:33;;;;;;;80.35;34.92;;;;;;;2.57;78.65;101298.84;1733494;83;21201;-61
2022/02/16 09:07:27;;;;;;;73.02;31.50;;;;;;;2.65;78.85;101295.11;1706811;84;21293;-62
2022/02/16 09:09:47;;;;;;;69.10;32.45;;;;;;;2.68;79.06;101281.41;1707819;84;21846;-63
2022/02/16 09:12:54;;;;;;;66.75;32.38;;;;;;;2.67;79.24;101279.66;1769507;81;21355;-62
2022/02/16 09:15:59;;;;;;;61.95;30.45;;;;;;;2.78;79.63;101274.39;1769825;81;21355;-61
2022/02/16 09:19:05;;;;;;;56.92;26.90;;;;;;;2.84;79.77;101264.02;1733251;83;21229;-62
2022/02/16 09:22:16;;;;;;;67.32;33.83;;;;;;;2.88;79.79;101259.28;1726239;82;21236;-63
2022/02/16 09:25:52;;;;;;;63.55;31.45;;;;;;;2.84;79.69;101265.38;1750902;81;21740;-63
2022/02/16 09:28:59;;;;;;;71.75;35.15;;;;;;;2.83;79.89;101257.37;1750544;81;21796;-63
2022/02/16 09:32:06;;;;;;;71.02;34.43;;;;;;;2.85;80.02;101252.23;1761979;80;21201;-61
2022/02/16 09:35:16;;;;;;;69.75;35.10;;;;;;;2.88;80.27;101249.34;1740088;81;21224;-64
2022/02/16 09:38:26;;;;;;;66.33;32.10;;;;;;;2.94;80.31;101252.09;1744468;81;21271;-61
2022/02/16 09:41:33;;;;;;;58.55;30.35;;;;;;;2.94;80.29;101239.92;1740915;82;21734;-61
2022/02/16 09:44:53;;;;;;;66.90;31.82;;;;;;;2.89;80.34;101237.55;1759709;80;21263;-61
2022/02/16 09:48:00;;;;;;;54.18;27.37;;;;;;;2.88;80.57;101233.59;1760730;81;21213;-62
2022/02/16 09:51:06;;;;;;;64.75;32.15;;;;;;;2.89;80.77;101235.31;1745650;80;21371;-61
2022/02/16 09:54:15;;;;;;;60.67;27.98;;;;;;;2.84;80.93;101230.70;1769156;80;21189;-61
2022/02/16 09:57:23;;;;;;;55.38;26.82;;;;;;;2.74;81.19;101225.58;1766738;81;21201;-62
2022/02/16 10:00:31;;;;;;;53.38;26.02;;;;;;;2.68;81.52;101219.25;1766165;79;21205;-62
2022/02/16 10:03:39;;;;;;;48.10;26.60;;;;;;;2.71;81.88;101217.69;1757906;81;21801;-61
2022/02/16 10:06:51;;;;;;;43.80;24.80;;;;;;;2.79;82.00;101207.20;1768925;81;21209;-63
2022/02/16 10:09:58;;;;;;;43.63;24.45;;;;;;;2.82;81.93;101197.53;1769920;79;21263;-62
2022/02/16 10:13:07;;;;;;;43.35;23.52;;;;;;;2.87;81.94;101184.55;1770022;80;21734;-62
2022/02/16 10:16:13;;;;;;;43.98;22.22;;;;;;;2.93;82.00;101186.83;1769850;79;21200;-62
2022/02/16 10:19:22;;;;;;;39.98;22.50;;;;;;;2.97;81.84;101177.50;1769995;79;21239;-63
2022/02/16 10:22:35;;;;;;;38.15;21.87;;;;;;;3.00;81.87;101178.64;1770052;81;21189;-62
2022/02/16 10:25:43;;;;;;;37.53;21.93;;;;;;;3.11;81.99;101170.62;1770502;79;21240;-64
2022/02/16 10:28:54;;;;;;;32.45;19.50;;;;;;;3.21;81.94;101168.13;1770826;80;21272;-63
2022/02/16 10:31:58;;;;;;;32.48;18.37;;;;;;;3.28;81.74;101167.60;1769145;80;21238;-63
2022/02/16 10:35:04;;;;;;;31.80;19.20;;;;;;;3.25;81.40;101155.62;1766046;79;21214;-62
2022/02/16 10:38:10;;;;;;;35.78;17.42;;;;;;;3.22;81.36;101157.20;1761544;81;21667;-62
2022/02/16 10:41:19;;;;;;;31.23;19.50;;;;;;;3.18;81.25;101150.77;1768992;80;21204;-63
2022/02/16 10:44:35;;;;;;;36.68;19.85;;;;;;;3.11;81.32;101153.05;1768571;81;21406;-63
2022/02/16 10:48:08;;;;;;;41.85;24.10;;;;;;;3.15;81.69;101151.87;1769622;80;21217;-63
2022/02/16 10:51:26;;;;;;;35.00;20.82;;;;;;;3.23;81.53;101136.43;1769107;79;21394;-62
2022/02/16 10:54:35;;;;;;;34.10;19.67;;;;;;;3.25;81.28;101123.16;1766795;80;21609;-64
2022/02/16 10:57:43;;;;;;;34.83;19.35;;;;;;;3.17;81.10;101128.77;1766900;80;22171;-60
2022/02/16 11:00:52;;;;;;;35.50;19.23;;;;;;;3.14;81.23;101114.11;1746036;80;21241;-62
2022/02/16 11:03:58;;;;;;;31.70;19.15;;;;;;;3.13;81.38;101122.70;1762692;81;21185;-60
2022/02/16 11:07:08;;;;;;;32.63;19.80;;;;;;;3.17;81.46;101116.59;1767019;80;21224;-61
2022/02/16 11:10:11;;;;;;;30.15;18.82;;;;;;;3.18;81.35;101113.77;1763519;79;21713;-61
2022/02/16 11:13:21;;;;;;;31.30;18.57;;;;;;;3.19;81.42;101112.78;1733592;82;21798;-62
2022/02/16 11:16:29;;;;;;;28.85;18.02;;;;;;;3.25;81.63;101112.33;1737470;80;21310;-61
2022/02/16 11:19:39;;;;;;;29.42;18.48;;;;;;;3.32;81.58;101104.16;1759449;81;21374;-61
2022/02/16 11:23:02;;;;;;;25.23;16.80;;;;;;;3.28;81.25;101097.73;1751073;80;21726;-61
2022/02/16 11:26:08;;;;;;;29.72;17.77;;;;;;;3.23;81.19;101095.38;1763738;81;21193;-60
2022/02/16 11:29:37;;;;;;;29.05;18.17;;;;;;;3.15;81.32;101091.01;1724691;81;21755;-61
2022/02/16 11:32:47;;;;;;;33.95;20.32;;;;;;;3.18;81.49;101087.20;1753463;80;21789;-61
2022/02/16 11:35:54;;;;;;;36.23;19.65;;;;;;;3.20;81.57;101091.54;1766170;79;21216;-63
2022/02/16 11:39:02;;;;;;;31.65;19.07;;;;;;;3.19;81.55;101072.72;1761438;81;21742;-64
2022/02/16 11:42:11;;;;;;;30.05;19.25;;;;;;;3.13;81.71;101078.55;1770412;80;21200;-63
2022/02/16 11:45:16;;;;;;;33.75;20.75;;;;;;;3.11;82.04;101074.61;1769130;79;21703;-64
2022/02/16 11:48:50;;;;;;;29.52;18.85;;;;;;;3.16;82.16;101071.09;1767810;80;21205;-63
2022/02/16 11:51:55;;;;;;;26.55;16.42;;;;;;;3.13;82.07;101060.97;1767829;80;21535;-62
2022/02/16 11:55:02;;;;;;;26.82;16.40;;;;;;;3.03;82.18;101053.53;1760815;80;21244;-65
2022/02/16 11:58:27;;;;;;;25.88;16.65;;;;;;;2.98;82.46;101052.16;1761075;80;21737;-63
2022/02/16 12:02:04;;;;;;;26.52;16.20;;;;;;;2.94;82.74;101051.98;1738086;82;21216;-63
2022/02/16 12:05:12;;;;;;;25.20;15.45;;;;;;;2.92;83.13;101041.28;1737945;81;21267;-63
2022/02/16 12:08:29;;;;;;;22.77;14.55;;;;;;;2.93;83.30;101043.00;1744808;80;21205;-63
2022/02/16 12:11:35;;;;;;;25.57;16.00;;;;;;;2.90;83.45;101037.82;1766790;81;21761;-64
2022/02/16 12:14:41;;;;;;;26.05;16.55;;;;;;;2.89;83.72;101033.87;1769146;79;21212;-66
2022/02/16 12:17:49;;;;;;;23.45;14.70;;;;;;;2.91;83.95;101030.11;1769546;80;21449;-63
2022/02/16 12:21:01;;;;;;;25.25;15.28;;;;;;;2.92;84.08;101021.01;1750421;80;21707;-63
2022/02/16 12:24:19;;;;;;;25.80;14.98;;;;;;;2.93;84.27;101023.23;1747225;80;21445;-64
2022/02/16 12:27:29;;;;;;;24.18;14.95;;;;;;;2.93;84.45;101028.64;1757493;80;21284;-62
2022/02/16 12:30:47;;;;;;;23.95;14.95;;;;;;;3.01;84.72;101029.79;1758860;80;21570;-63
2022/02/16 12:34:04;;;;;;;21.40;13.93;;;;;;;3.09;84.74;101026.55;1754553;80;21247;-65
2022/02/16 12:37:17;;;;;;;21.10;13.05;;;;;;;3.18;84.76;101025.86;1768994;80;22204;-63
2022/02/16 12:40:23;;;;;;;17.70;12.37;;;;;;;3.29;84.77;101016.45;1766066;80;21725;-63
2022/02/16 12:43:29;;;;;;;20.68;13.60;;;;;;;3.22;84.05;101011.62;1761625;80;21261;-64
2022/02/16 12:46:39;;;;;;;20.72;13.72;;;;;;;3.05;83.72;101022.32;1759904;80;21189;-63
2022/02/16 12:49:46;;;;;;;23.70;15.25;;;;;;;2.94;83.90;101011.42;1754555;81;21212;-63
2022/02/16 12:52:58;;;;;;;25.62;15.32;;;;;;;2.94;83.99;101010.95;1769041;80;21280;-63
2022/02/16 12:56:04;;;;;;;23.67;14.28;;;;;;;2.88;83.96;101011.88;1733746;82;21204;-64
2022/02/16 12:59:34;;;;;;;22.13;13.62;;;;;;;2.83;84.24;101014.05;1684585;84;21249;-63
2022/02/16 13:02:41;;;;;;;16.15;12.65;;;;;;;2.83;84.43;101005.94;1730923;82;21262;-62
2022/02/16 13:05:49;;;;;;;17.87;12.23;;;;;;;2.82;84.57;101003.72;1689726;84;21579;-62
2022/02/16 13:08:59;;;;;;;21.82;12.93;;;;;;;2.84;84.75;101004.95;1733196;82;21477;-63
2022/02/16 13:12:06;;;;;;;21.20;12.90;;;;;;;2.84;84.77;100994.14;1733941;82;21757;-63
2022/02/16 13:15:20;;;;;;;24.32;13.88;;;;;;;2.82;84.80;100994.25;1720657;82;21185;-63
2022/02/16 13:18:49;;;;;;;19.98;14.00;;;;;;;2.76;84.85;100981.67;1724414;82;21749;-62
2022/02/16 13:21:56;;;;;;;20.77;12.58;;;;;;;2.71;84.96;100979.81;1700068;84;21539;-62
2022/02/16 13:25:10;;;;;;;18.73;13.15;;;;;;;2.60;85.06;100971.63;1730108;82;21634;-63
2022/02/16 13:28:22;;;;;;;;;;;;;;;2.56;85.39;100966.05;1732291;82;21235;-62
2022/02/16 13:31:30;;;;;;;21.87;14.15;;;;;;;2.53;85.66;100964.92;1734244;82;20594;-62
2022/02/16 13:34:35;;;;;;;21.45;13.00;;;;;;;2.51;85.95;100967.73;1698868;83;21224;-62
2022/02/16 13:37:40;;;;;;;22.07;13.48;;;;;;;2.51;86.16;100965.52;1728968;82;22077;-61
2022/02/16 13:41:04;;;;;;;20.40;13.05;;;;;;;2.49;86.30;100964.27;1699046;83;21228;-61
2022/02/16 13:44:13;;;;;;;24.52;14.30;;;;;;;2.48;86.43;100961.69;1733261;81;21232;-61
2022/02/16 13:47:26;;;;;;;21.33;13.32;;;;;;;2.51;86.59;100965.52;1699581;84;21762;-60
2022/02/16 13:50:39;;;;;;;19.07;12.90;;;;;;;2.47;86.66;100964.90;1735020;81;21796;-60
2022/02/16 13:53:46;;;;;;;18.32;12.23;;;;;;;2.45;86.76;100958.73;1705009;82;21187;-61
2022/02/16 13:57:05;;;;;;;19.70;12.40;;;;;;;2.43;86.83;100951.22;1758365;81;21189;-60
2022/02/16 14:00:17;;;;;;;20.37;12.60;;;;;;;2.43;86.95;100950.34;1768949;79;21216;-60
2022/02/16 14:03:25;;;;;;;20.30;12.88;;;;;;;2.40;87.05;100948.73;1768663;81;21597;-61
2022/02/16 14:06:35;;;;;;;22.75;14.43;;;;;;;2.40;87.18;100946.03;1765596;80;21186;-60
2022/02/16 14:09:42;;;;;;;20.80;13.20;;;;;;;2.40;87.46;100935.70;1769109;79;21196;-62
2022/02/16 14:12:58;;;;;;;19.87;12.75;;;;;;;2.44;87.74;100941.28;1769985;80;21351;-63
2022/02/16 14:16:07;;;;;;;19.92;11.57;;;;;;;2.47;87.79;100937.00;1763981;80;21322;-63
2022/02/16 14:19:24;;;;;;;17.80;12.82;;;;;;;2.53;87.88;100932.50;1764522;81;21197;-63
2022/02/16 14:22:31;;;;;;;19.52;12.65;;;;;;;2.59;87.95;100917.18;1768298;80;21299;-64
2022/02/16 14:25:51;;;;;;;17.85;11.35;;;;;;;2.63;87.88;100920.89;1768504;79;21185;-64